createdAt,value
2022-08-17T00:00:34.883Z,51.35
2022-08-17T00:03:06.380Z,51.23
2022-08-17T00:05:36.582Z,51.26
2022-08-17T00:08:05.032Z,51.54
2022-08-17T00:10:33.539Z,51.60
2022-08-17T00:13:05.685Z,51.50
2022-08-17T00:15:34.997Z,51.67
2022-08-17T00:18:03.060Z,51.68
2022-08-17T00:20:34.870Z,51.83
2022-08-17T00:23:08.250Z,51.76
2022-08-17T00:25:36.174Z,52.23
2022-08-17T00:28:04.270Z,52.22
2022-08-17T00:30:53.093Z,52.60
2022-08-17T00:33:25.229Z,52.29
2022-08-17T00:35:54.197Z,52.43
2022-08-17T00:38:22.223Z,52.68
2022-08-17T00:40:52.613Z,52.68
2022-08-17T00:43:31.811Z,52.76
2022-08-17T00:46:00.971Z,52.83
2022-08-17T00:48:31.388Z,52.97
2022-08-17T00:51:04.228Z,53.03
2022-08-17T00:53:34.794Z,53.24
2022-08-17T00:56:05.727Z,53.36
2022-08-17T00:58:36.286Z,53.17
2022-08-17T01:01:05.932Z,53.42
2022-08-17T01:03:37.940Z,53.57
2022-08-17T01:06:07.553Z,53.66
2022-08-17T01:08:38.163Z,53.62
2022-08-17T01:11:07.015Z,53.75
2022-08-17T01:13:41.251Z,53.54
2022-08-17T01:16:16.589Z,53.99
2022-08-17T01:18:49.056Z,54.01
2022-08-17T01:21:21.290Z,54.08
2022-08-17T01:23:50.576Z,54.18
2022-08-17T01:26:19.171Z,54.33
2022-08-17T01:28:54.767Z,54.37
2022-08-17T01:31:26.856Z,54.43
2022-08-17T01:33:54.718Z,54.54
2022-08-17T01:36:22.683Z,54.67
2022-08-17T01:38:51.973Z,54.68
2022-08-17T01:41:25.460Z,54.74
2022-08-17T01:43:57.798Z,54.82
2022-08-17T01:46:29.190Z,54.99
2022-08-17T01:48:58.408Z,54.98
2022-08-17T01:51:27.301Z,54.85
2022-08-17T01:54:00.117Z,55.16
2022-08-17T01:56:30.119Z,55.45
2022-08-17T01:58:58.109Z,55.45
2022-08-17T02:01:29.011Z,55.58
2022-08-17T02:04:00.977Z,55.63
2022-08-17T02:06:52.843Z,55.73
2022-08-17T02:09:23.270Z,55.89
2022-08-17T02:11:53.424Z,55.88
2022-08-17T02:14:22.163Z,56.09
2022-08-17T02:16:50.420Z,56.02
2022-08-17T02:19:18.808Z,56.30
2022-08-17T02:21:49.563Z,56.31
2022-08-17T02:25:00.749Z,56.37
2022-08-17T02:27:10.312Z,56.63
2022-08-17T02:29:38.321Z,56.55
2022-08-17T02:32:06.737Z,56.66
2022-08-17T02:34:34.598Z,56.73
2022-08-17T02:37:02.431Z,56.87
2022-08-17T02:39:31.981Z,56.99
2022-08-17T02:42:03.138Z,57.09
2022-08-17T02:44:39.035Z,57.19
2022-08-17T02:47:09.642Z,57.25
2022-08-17T02:49:38.114Z,57.42
2022-08-17T02:52:07.757Z,57.62
2022-08-17T02:54:41.042Z,57.58
2022-08-17T02:57:10.578Z,57.53
2022-08-17T02:59:38.735Z,57.76
2022-08-17T03:02:08.491Z,57.94
2022-08-17T03:04:36.502Z,57.84
2022-08-17T03:07:05.105Z,57.95
2022-08-17T03:09:33.391Z,58.17
2022-08-17T03:12:07.474Z,58.24
2022-08-17T03:14:41.495Z,58.34
2022-08-17T03:17:11.206Z,58.36
2022-08-17T03:19:45.417Z,58.42
2022-08-17T03:22:36.009Z,58.45
2022-08-17T03:25:01.320Z,58.73
2022-08-17T03:27:31.363Z,58.64
2022-08-17T03:29:59.393Z,58.88
2022-08-17T03:32:27.283Z,58.87
2022-08-17T03:34:59.223Z,58.93
2022-08-17T03:37:27.166Z,59.08
2022-08-17T03:39:55.495Z,59.10
2022-08-17T03:42:31.383Z,59.21
2022-08-17T03:45:03.360Z,58.90
2022-08-17T03:47:48.588Z,59.37
2022-08-17T03:50:34.039Z,59.53
2022-08-17T03:53:22.570Z,59.45
2022-08-17T03:56:07.802Z,59.64
2022-08-17T03:58:36.831Z,59.82
2022-08-17T04:01:07.098Z,59.71
2022-08-17T04:03:35.100Z,59.97
2022-08-17T04:06:03.233Z,59.90
2022-08-17T04:08:31.551Z,60.20
2022-08-17T04:11:00.116Z,60.22
2022-08-17T04:13:28.335Z,60.33
2022-08-17T04:15:56.219Z,60.36
2022-08-17T04:18:26.059Z,60.49
2022-08-17T04:20:53.950Z,60.56
2022-08-17T04:23:21.840Z,60.56
2022-08-17T04:25:51.555Z,60.75
2022-08-17T04:28:20.674Z,60.82
2022-08-17T04:30:49.245Z,60.89
2022-08-17T04:33:19.793Z,60.95
2022-08-17T04:35:51.113Z,61.09
2022-08-17T04:38:20.731Z,61.08
2022-08-17T04:41:06.826Z,61.15
2022-08-17T04:43:36.557Z,61.36
2022-08-17T04:46:06.227Z,61.29
2022-08-17T04:48:37.479Z,61.49
2022-08-17T04:51:11.983Z,61.69
2022-08-17T04:53:41.159Z,61.61
2022-08-17T04:56:11.662Z,61.73
2022-08-17T04:58:45.246Z,61.89
2022-08-17T05:01:13.642Z,61.86
2022-08-17T05:03:42.011Z,62.01
2022-08-17T05:06:11.418Z,62.06
2022-08-17T05:08:40.123Z,62.18
2022-08-17T05:11:08.526Z,62.17
2022-08-17T05:13:36.357Z,62.22
2022-08-17T05:16:05.587Z,62.27
2022-08-17T05:18:34.029Z,62.38
2022-08-17T05:21:03.288Z,62.64
2022-08-17T05:23:41.822Z,62.82
2022-08-17T05:26:21.370Z,62.81
2022-08-17T05:28:55.249Z,62.75
2022-08-17T05:31:26.513Z,62.89
2022-08-17T05:33:54.455Z,62.86
2022-08-17T05:36:42.546Z,62.84
2022-08-17T05:39:16.668Z,63.17
2022-08-17T05:41:46.996Z,63.21
2022-08-17T05:44:15.064Z,63.19
2022-08-17T05:46:46.586Z,63.27
2022-08-17T05:49:17.170Z,63.39
2022-08-17T05:52:10.316Z,63.60
2022-08-17T05:54:52.694Z,63.48
2022-08-17T05:57:39.919Z,63.58
2022-08-17T06:00:17.048Z,63.79
2022-08-17T06:03:16.425Z,63.87
2022-08-17T06:06:01.260Z,63.60
2022-08-17T06:08:35.250Z,64.25
2022-08-17T06:11:16.103Z,64.09
2022-08-17T06:14:18.984Z,64.00
2022-08-17T06:16:51.017Z,64.21
2022-08-17T06:19:25.366Z,63.96
2022-08-17T06:21:55.847Z,64.40
2022-08-17T06:24:34.221Z,64.39
2022-08-17T06:27:12.758Z,64.33
2022-08-17T06:29:49.408Z,64.63
2022-08-17T06:32:17.459Z,64.64
2022-08-17T06:34:47.151Z,64.72
2022-08-17T06:37:31.087Z,64.96
2022-08-17T06:40:14.557Z,64.77
2022-08-17T06:43:04.982Z,64.90
2022-08-17T06:45:38.731Z,65.03
2022-08-17T06:48:13.927Z,65.13
2022-08-17T06:50:48.673Z,64.87
2022-08-17T06:53:24.455Z,65.12
2022-08-17T06:55:59.812Z,65.14
2022-08-17T06:58:33.306Z,65.37
2022-08-17T07:01:07.754Z,65.21
2022-08-17T07:03:40.753Z,65.19
2022-08-17T07:06:15.423Z,65.15
2022-08-17T07:08:56.667Z,65.34
2022-08-17T07:11:31.394Z,65.21
2022-08-17T07:14:17.288Z,65.22
2022-08-17T07:16:48.432Z,65.39
2022-08-17T07:19:17.762Z,65.46
2022-08-17T07:21:54.929Z,65.39
2022-08-17T07:24:37.935Z,65.33
2022-08-17T07:27:18.155Z,65.32
2022-08-17T07:29:51.041Z,65.32
2022-08-17T07:32:24.094Z,65.44
2022-08-17T07:35:10.693Z,65.31
2022-08-17T07:37:41.016Z,65.31
2022-08-17T07:40:26.959Z,65.28
2022-08-17T07:43:26.056Z,65.55
2022-08-17T07:46:32.522Z,65.36
2022-08-17T07:49:17.027Z,65.44
2022-08-17T07:52:00.440Z,65.32
2022-08-17T07:54:48.300Z,65.45
2022-08-17T07:57:34.374Z,65.36
2022-08-17T08:00:17.039Z,65.14
2022-08-17T08:02:58.610Z,65.18
2022-08-17T08:05:49.254Z,65.38
2022-08-17T08:08:29.057Z,64.89
2022-08-17T08:11:03.198Z,64.95
2022-08-17T08:13:32.245Z,64.85
2022-08-17T08:16:20.721Z,64.89
2022-08-17T08:18:56.865Z,64.72
2022-08-17T08:21:47.158Z,65.14
2022-08-17T08:24:32.340Z,64.78
2022-08-17T08:27:11.430Z,64.46
2022-08-17T08:29:50.834Z,64.60
2022-08-17T08:32:26.428Z,64.55
2022-08-17T08:35:04.565Z,64.44
2022-08-17T08:37:43.549Z,64.54
2022-08-17T08:40:22.728Z,64.63
2022-08-17T08:42:57.959Z,64.32
2022-08-17T08:45:37.396Z,64.32
2022-08-17T08:48:46.153Z,64.29
2022-08-17T08:51:13.732Z,64.07
2022-08-17T08:53:49.600Z,64.08
2022-08-17T08:56:32.639Z,63.89
2022-08-17T08:59:08.369Z,63.71
2022-08-17T09:01:43.493Z,63.62
2022-08-17T09:04:26.529Z,63.62
2022-08-17T09:07:07.420Z,63.48
2022-08-17T09:09:49.650Z,63.29
2022-08-17T09:12:26.547Z,63.27
2022-08-17T09:15:02.375Z,62.81
2022-08-17T09:17:37.660Z,62.97
2022-08-17T09:20:28.060Z,63.02
2022-08-17T09:23:03.892Z,62.41
2022-08-17T09:25:37.935Z,62.67
2022-08-17T09:28:13.347Z,62.55
2022-08-17T09:30:49.791Z,62.04
2022-08-17T09:33:22.896Z,61.94
2022-08-17T09:35:54.836Z,61.64
2022-08-17T09:38:32.407Z,62.04
2022-08-17T09:41:15.546Z,61.85
2022-08-17T09:43:50.335Z,61.23
2022-08-17T09:46:23.167Z,61.34
2022-08-17T09:48:55.573Z,61.09
2022-08-17T09:51:30.274Z,61.04
2022-08-17T09:54:21.010Z,61.00
2022-08-17T09:57:28.580Z,60.73
2022-08-17T10:00:13.398Z,60.68
2022-08-17T10:03:01.721Z,60.17
2022-08-17T10:05:37.730Z,60.13
2022-08-17T10:08:15.110Z,59.84
2022-08-17T10:10:56.791Z,59.81
2022-08-17T10:13:37.145Z,59.42
2022-08-17T10:16:12.626Z,59.22
2022-08-17T10:18:52.485Z,59.23
2022-08-17T10:21:40.011Z,58.75
2022-08-17T10:24:31.400Z,58.65
2022-08-17T10:27:04.048Z,58.44
2022-08-17T10:29:49.051Z,58.31
2022-08-17T10:32:28.646Z,57.89
2022-08-17T10:35:19.198Z,57.69
2022-08-17T10:38:16.008Z,57.48
2022-08-17T10:40:49.520Z,57.35
2022-08-17T10:43:37.287Z,57.09
2022-08-17T10:46:31.183Z,56.90
2022-08-17T10:49:33.082Z,56.75
2022-08-17T10:52:03.000Z,56.45
2022-08-17T10:54:40.403Z,56.07
2022-08-17T10:57:41.103Z,55.95
2022-08-17T11:00:31.832Z,55.81
2022-08-17T11:03:00.150Z,55.52
2022-08-17T11:05:50.246Z,55.33
2022-08-17T11:08:38.425Z,55.17
2022-08-17T11:11:38.991Z,54.83
2022-08-17T11:14:25.784Z,54.82
2022-08-17T11:17:11.268Z,54.45
2022-08-17T11:20:13.994Z,54.27
2022-08-17T11:22:55.647Z,54.08
2022-08-17T11:25:34.904Z,53.85
2022-08-17T11:28:10.064Z,53.69
2022-08-17T11:30:44.749Z,53.47
2022-08-17T11:33:56.126Z,53.02
2022-08-17T11:36:35.517Z,52.98
2022-08-17T11:39:16.097Z,53.07
2022-08-17T11:41:51.010Z,52.90
2022-08-17T11:44:32.472Z,52.34
2022-08-17T11:47:29.923Z,52.02
2022-08-17T11:50:30.018Z,51.84
2022-08-17T11:52:57.984Z,51.56
2022-08-17T11:56:03.901Z,51.38
2022-08-17T11:58:41.378Z,51.64
2022-08-17T12:01:13.650Z,51.12
2022-08-17T12:03:55.392Z,51.11
2022-08-17T12:06:51.172Z,51.04
2022-08-17T12:09:24.597Z,50.78
2022-08-17T12:12:12.465Z,50.55
2022-08-17T12:15:08.911Z,49.95
2022-08-17T12:17:41.550Z,49.92
2022-08-17T12:20:16.392Z,49.74
2022-08-17T12:22:56.510Z,49.80
2022-08-17T12:25:33.106Z,49.50
2022-08-17T12:28:06.809Z,49.72
2022-08-17T12:30:36.929Z,49.30
2022-08-17T12:33:12.350Z,48.91
2022-08-17T12:35:40.302Z,49.24
2022-08-17T12:38:32.601Z,48.74
2022-08-17T12:40:59.800Z,48.64
2022-08-17T12:43:32.772Z,48.37
2022-08-17T12:46:14.949Z,48.14
2022-08-17T12:48:54.998Z,48.17
2022-08-17T12:51:29.081Z,48.00
2022-08-17T12:53:58.604Z,47.95
2022-08-17T12:56:27.078Z,47.68
2022-08-17T12:58:56.628Z,47.68
2022-08-17T13:01:26.008Z,47.31
2022-08-17T13:03:59.821Z,47.12
2022-08-17T13:06:31.500Z,47.07
2022-08-17T13:09:09.160Z,46.87
2022-08-17T13:11:37.148Z,46.76
2022-08-17T13:14:10.860Z,46.62
2022-08-17T13:16:39.360Z,46.65
2022-08-17T13:19:09.683Z,46.54
2022-08-17T13:21:38.457Z,46.45
2022-08-17T13:24:18.025Z,46.26
2022-08-17T13:26:49.341Z,46.00
2022-08-17T13:29:24.885Z,46.13
2022-08-17T13:32:04.031Z,45.83
2022-08-17T13:35:11.841Z,45.94
2022-08-17T13:37:32.704Z,45.52
2022-08-17T13:40:23.849Z,45.70
2022-08-17T13:42:54.395Z,45.38
2022-08-17T13:45:38.788Z,45.33
2022-08-17T13:48:14.422Z,45.37
2022-08-17T13:50:45.292Z,45.16
2022-08-17T13:53:22.089Z,45.22
2022-08-17T13:55:55.211Z,44.77
2022-08-17T13:58:25.750Z,45.13
2022-08-17T14:00:54.368Z,44.76
2022-08-17T14:03:22.284Z,44.68
2022-08-17T14:05:51.739Z,44.75
2022-08-17T14:08:21.782Z,44.83
2022-08-17T14:10:59.280Z,44.57
2022-08-17T14:13:27.893Z,44.49
2022-08-17T14:15:56.893Z,44.22
2022-08-17T14:18:54.305Z,44.42
2022-08-17T14:21:13.107Z,44.14
2022-08-17T14:23:41.029Z,44.26
2022-08-17T14:26:12.893Z,44.26
2022-08-17T14:28:47.764Z,44.17
2022-08-17T14:31:22.926Z,44.05
2022-08-17T14:33:51.460Z,44.04
2022-08-17T14:36:19.337Z,43.97
2022-08-17T14:38:47.196Z,43.81
2022-08-17T14:41:21.972Z,43.69
2022-08-17T14:43:51.332Z,43.74
2022-08-17T14:46:19.281Z,43.67
2022-08-17T14:48:47.242Z,43.53
2022-08-17T14:51:17.015Z,43.57
2022-08-17T14:53:47.725Z,43.33
2022-08-17T14:56:17.536Z,43.38
2022-08-17T14:58:45.757Z,43.03
2022-08-17T15:01:14.883Z,43.43
2022-08-17T15:03:43.374Z,43.27
2022-08-17T15:06:15.311Z,43.20
2022-08-17T15:08:44.669Z,42.90
2022-08-17T15:11:14.677Z,43.11
2022-08-17T15:13:52.715Z,42.78
2022-08-17T15:16:21.481Z,42.60
2022-08-17T15:18:50.133Z,42.87
2022-08-17T15:21:18.265Z,42.87
2022-08-17T15:23:46.619Z,42.42
2022-08-17T15:26:14.497Z,42.30
2022-08-17T15:28:43.700Z,42.63
2022-08-17T15:31:18.128Z,42.17
2022-08-17T15:33:46.121Z,42.54
2022-08-17T15:36:14.184Z,42.57
2022-08-17T15:38:44.505Z,42.47
2022-08-17T15:41:15.452Z,42.36
2022-08-17T15:43:45.644Z,41.79
2022-08-17T15:46:16.358Z,41.74
2022-08-17T15:48:46.150Z,41.62
2022-08-17T15:51:17.082Z,42.01
2022-08-17T15:53:47.236Z,41.94
2022-08-17T15:56:16.219Z,41.44
2022-08-17T15:58:47.465Z,41.28
2022-08-17T16:01:26.692Z,41.67
2022-08-17T16:04:26.704Z,41.22
2022-08-17T16:06:53.833Z,41.28
2022-08-17T16:09:21.718Z,41.25
2022-08-17T16:11:52.786Z,40.88
2022-08-17T16:14:33.939Z,41.07
2022-08-17T16:17:03.341Z,40.83
2022-08-17T16:19:32.477Z,40.91
2022-08-17T16:22:00.392Z,40.91
2022-08-17T16:24:28.480Z,40.82
2022-08-17T16:26:56.792Z,40.49
2022-08-17T16:29:26.236Z,40.40
2022-08-17T16:31:54.359Z,40.62
2022-08-17T16:34:22.245Z,40.55
2022-08-17T16:36:55.960Z,40.53
2022-08-17T16:39:28.945Z,40.40
2022-08-17T16:41:57.847Z,40.17
2022-08-17T16:44:28.935Z,40.36
2022-08-17T16:46:57.379Z,40.17
2022-08-17T16:49:35.613Z,40.28
2022-08-17T16:52:07.640Z,40.19
2022-08-17T16:54:38.122Z,40.12
2022-08-17T16:57:08.905Z,40.44
2022-08-17T16:59:40.781Z,40.28
2022-08-17T17:02:14.679Z,40.03
2022-08-17T17:04:49.611Z,40.12
2022-08-17T17:07:51.116Z,39.92
2022-08-17T17:10:23.745Z,40.06
2022-08-17T17:13:02.498Z,39.99
2022-08-17T17:15:47.457Z,39.95
2022-08-17T17:18:17.160Z,39.83
2022-08-17T17:20:51.075Z,39.53
2022-08-17T17:23:36.232Z,39.87
2022-08-17T17:26:12.686Z,39.81
2022-08-17T17:28:53.128Z,39.74
2022-08-17T17:31:26.282Z,39.72
2022-08-17T17:33:57.406Z,39.77
2022-08-17T17:36:30.446Z,39.72
2022-08-17T17:39:05.048Z,39.50
2022-08-17T17:41:38.101Z,39.74
2022-08-17T17:44:12.084Z,39.82
2022-08-17T17:46:45.177Z,39.58
2022-08-17T17:49:14.353Z,39.82
2022-08-17T17:52:09.146Z,39.68
2022-08-17T17:54:52.182Z,39.84
2022-08-17T17:57:27.935Z,39.71
2022-08-17T18:00:08.130Z,39.55
2022-08-17T18:03:00.915Z,39.87
2022-08-17T18:05:40.419Z,39.75
2022-08-17T18:08:19.899Z,39.67
2022-08-17T18:11:08.768Z,39.63
2022-08-17T18:13:53.856Z,39.69
2022-08-17T18:16:22.541Z,40.01
2022-08-17T18:18:53.463Z,39.68
2022-08-17T18:21:26.446Z,39.92
2022-08-17T18:23:56.935Z,39.56
2022-08-17T18:26:43.811Z,39.97
2022-08-17T18:29:32.400Z,39.84
2022-08-17T18:32:17.498Z,40.08
2022-08-17T18:34:49.126Z,40.02
2022-08-17T18:37:33.030Z,39.93
2022-08-17T18:40:16.155Z,39.88
2022-08-17T18:42:45.730Z,40.04
2022-08-17T18:45:14.503Z,40.14
2022-08-17T18:47:54.365Z,40.15
2022-08-17T18:50:27.700Z,40.09
2022-08-17T18:53:15.704Z,40.46
2022-08-17T18:55:43.623Z,40.24
2022-08-17T18:58:25.450Z,40.34
2022-08-17T19:00:53.704Z,40.24
2022-08-17T19:03:26.911Z,40.49
2022-08-17T19:06:16.022Z,40.32
2022-08-17T19:08:44.335Z,40.36
2022-08-17T19:11:21.614Z,40.62
2022-08-17T19:13:55.670Z,40.70
2022-08-17T19:16:28.453Z,40.77
2022-08-17T19:19:02.451Z,40.60
2022-08-17T19:21:37.212Z,40.77
2022-08-17T19:24:10.645Z,40.56
2022-08-17T19:26:54.572Z,40.97
2022-08-17T19:29:30.890Z,40.76
2022-08-17T19:31:59.670Z,40.51
2022-08-17T19:34:33.287Z,40.82
2022-08-17T19:37:08.831Z,40.86
2022-08-17T19:39:44.554Z,41.04
2022-08-17T19:42:22.384Z,41.22
2022-08-17T19:44:58.667Z,40.76
2022-08-17T19:47:54.178Z,40.84
2022-08-17T19:53:08.461Z,41.07
2022-08-17T19:55:52.235Z,41.01
2022-08-17T19:58:37.787Z,41.53
2022-08-17T20:01:11.854Z,41.35
2022-08-17T20:03:49.678Z,41.36
2022-08-17T20:06:18.120Z,41.43
2022-08-17T20:08:57.979Z,41.68
2022-08-17T20:11:34.847Z,41.34
2022-08-17T20:14:07.909Z,41.61
2022-08-17T20:16:35.793Z,41.61
2022-08-17T20:19:09.456Z,41.88
2022-08-17T20:21:42.381Z,41.80
2022-08-17T20:24:22.820Z,42.06
2022-08-17T20:26:58.326Z,42.05
2022-08-17T20:30:10.990Z,42.22
2022-08-17T20:32:53.001Z,41.80
2022-08-17T20:35:27.052Z,42.01
2022-08-17T20:37:59.020Z,42.37
2022-08-17T20:40:34.159Z,42.19
2022-08-17T20:43:48.941Z,42.49
2022-08-17T20:46:32.920Z,42.45
2022-08-17T20:49:19.969Z,42.62
2022-08-17T20:52:01.735Z,42.32
2022-08-17T20:54:47.636Z,42.82
2022-08-17T20:57:48.563Z,42.88
2022-08-17T21:00:45.895Z,42.61
2022-08-17T21:03:50.906Z,42.78
2022-08-17T21:06:23.519Z,42.91
2022-08-17T21:08:57.650Z,43.06
2022-08-17T21:11:56.728Z,43.22
2022-08-17T21:14:58.622Z,43.33
2022-08-17T21:17:43.756Z,43.44
2022-08-17T21:20:32.232Z,43.41
2022-08-17T21:23:21.210Z,43.62
2022-08-17T21:26:06.800Z,43.64
2022-08-17T21:29:00.450Z,43.65
2022-08-17T21:31:34.614Z,43.64
2022-08-17T21:34:31.248Z,43.86
2022-08-17T21:37:34.771Z,43.91
2022-08-17T21:40:22.462Z,44.14
2022-08-17T21:42:53.793Z,44.23
2022-08-17T21:45:25.266Z,44.29
2022-08-17T21:48:11.019Z,44.16
2022-08-17T21:50:41.582Z,44.52
2022-08-17T21:53:19.388Z,44.58
2022-08-17T21:55:51.340Z,44.58
2022-08-17T21:58:30.431Z,44.66
2022-08-17T22:01:19.840Z,44.88
2022-08-17T22:06:40.966Z,44.88
2022-08-17T22:09:20.980Z,45.30
2022-08-17T22:12:07.709Z,45.06
2022-08-17T22:14:52.375Z,45.27
2022-08-17T22:17:23.618Z,45.25
2022-08-17T22:19:54.364Z,45.38
2022-08-17T22:22:33.286Z,45.46
2022-08-17T22:25:04.169Z,45.45
2022-08-17T22:27:54.461Z,45.77
2022-08-17T22:30:44.445Z,45.70
2022-08-17T22:33:37.176Z,45.78
2022-08-17T22:36:29.211Z,45.80
2022-08-17T22:39:00.746Z,46.03
2022-08-17T22:41:52.227Z,46.07
2022-08-17T22:44:27.127Z,46.22
2022-08-17T22:47:02.938Z,46.19
2022-08-17T22:49:36.794Z,46.38
2022-08-17T22:52:18.848Z,46.50
2022-08-17T22:55:09.469Z,46.67
2022-08-17T22:57:51.859Z,46.55
2022-08-17T23:00:34.202Z,46.79
2022-08-17T23:03:15.290Z,46.78
2022-08-17T23:05:45.760Z,46.74
2022-08-17T23:08:14.462Z,46.95
2022-08-17T23:10:45.285Z,47.03
2022-08-17T23:13:13.341Z,47.06
2022-08-17T23:15:41.885Z,47.29
2022-08-17T23:18:10.323Z,47.33
2022-08-17T23:20:41.346Z,47.36
2022-08-17T23:23:11.169Z,47.50
2022-08-17T23:25:39.400Z,47.51
2022-08-17T23:28:08.737Z,47.57
2022-08-17T23:30:41.267Z,47.80
2022-08-17T23:33:19.964Z,47.91
2022-08-17T23:35:48.401Z,47.90
2022-08-17T23:38:16.317Z,47.99
2022-08-17T23:40:44.200Z,48.20
2022-08-17T23:43:24.448Z,48.11
2022-08-17T23:45:54.948Z,48.17
2022-08-17T23:48:35.307Z,48.30
2022-08-17T23:51:09.626Z,48.42
2022-08-17T23:53:40.345Z,48.42
2022-08-17T23:56:11.307Z,48.57
2022-08-17T23:58:43.029Z,48.70
